ACT        NSW        VIC        QLD        SA        WA        TAS        NT        INFO        CALC            by VK5ZD

  Atmospheric Gas Attenuation - ITU Rec 676-11   --------------- db/100km ---------------
Station Date Time Temp RH % AH g/m3 Dew Point Wind Direction Speed kph Gust kph Barometer mB Rainfall Since 9am 24GHz 47GHz 76GHz 122GHz 134GHz 241GHz
Adelaide (Kent Town) 17 01:40 6.4 95 7.08 5.7 0 0 1021.6 0 16.7 25.9 37.5 98.2 87.4 298.8
Adelaide (West Terrace / Ngayirdapira) 17 01:40 10.2 84 8 7.6 11 11 1021.2 0 18.5 26.3 39.5 103.5 95.5 327.8
Adelaide Airport 17 01:40 5.9 94 6.78 5 9 9 1021.3 0 16.0 25.5 36.5 95.4 83.8 286.0
Arkaroola 16 15:00 18.8 40 6.44 5 9 1013.1 0 14.8 21.3 29.6 77.3 66.7 227.9
Cape Borda 17 01:40 10.8 96 9.49 10.2 17 20 1020.5 0 21.6 28.6 45.5 119.5 115.4 397.6
Cape Jaffa 17 01:40 6 93 6.75 4.9 11 15 1013.1 0 16.0 25.1 36.0 94.1 82.6 282.3
Cape Willoughby 17 01:40 11.8 87 9.16 9.7 15 17 1013.1 0 20.9 27.4 43.1 113.4 108.6 374.1
Ceduna 17 01:40 5.6 79 5.59 2.3 9 9 1019.6 0 13.5 23.5 31.7 82.6 67.9 230.3
Clare 17 01:40 3.2 99 5.97 3.1 0 0 1021.7 0 14.4 24.9 34.3 89.6 75.4 256.2
Cleve Airport 17 01:40 10.9 72 7.16 6.1 19 19 1020.1 0 16.6 24.7 35.7 93.4 83.4 285.4
Coober Pedy Airport 17 01:40 8 50 4.14 -1.8 20 22 1021.3 0 10.3 20.8 25.4 65.8 48.0 160.7
Coonawarra 17 01:40 5 92 6.26 3.8 9 9 1022.8 0 14.9 24.9 34.8 90.9 77.7 264.5
Cultana (Defence) 17 01:40 9.8 61 5.66 2.6 15 17 1013.1 0 13.5 22.3 30.1 78.5 64.8 220.3
Cummins Airport 17 01:40 6.5 100 7.5 6.5 0 0 1020.3 0.2 17.6 26.5 39.2 102.7 93.0 318.6
Edinburgh 17 01:40 6 91 6.61 4.6 11 13 1021.6 0 15.7 25.2 35.8 93.4 81.3 277.5
Edithburgh 17 01:30 5.7 100 7.12 5.7 4 4 1021.2 0 16.8 26.1 38.0 99.5 88.7 303.3
Ernabella/Pukatja 17 01:40 4.5 54 3.55 -4 15 15 1021 0 9.1 20.7 24.3 62.8 42.8 142.1
Hindmarsh Island 17 01:40 7 89 6.9 5.3 15 15 1021.6 0 16.2 25.4 36.5 95.5 84.2 287.8
Kadina 17 01:40 3.2 96 5.79 2.6 11 11 1021.2 0 14.0 24.6 33.6 87.5 72.9 247.4
Keith West 17 01:40 1.9 99 5.47 1.7 0 0 1013.1 0 13.4 24.1 32.4 84.6 69.1 234.3
Kingscote 17 01:40 2.2 96 5.41 1.6 0 0 1021.3 0.2 13.2 24.2 32.4 84.4 68.6 232.2
Kuitpo 17 01:40 7.3 100 7.9 7.3 19 24 1020.1 0.2 18.4 26.9 40.5 106.2 97.7 335.0
Kyancutta 16 15:00 18.4 62 9.75 11.1 4 1021.7 0 21.8 26.7 42.4 111.3 108.1 372.9
Lameroo Aws 17 01:40 3.4 94 5.75 2.5 11 11 1013.1 0 13.9 24.1 33.0 86.1 71.6 243.2
Leigh Creek 17 01:40 5.5 65 4.57 -0.5 7 7 1022 0 11.3 22.0 27.8 72.3 54.9 184.8
Loxton 17 01:40 0.7 94 4.79 -0.1 0 0 1022.8 0 11.9 23.6 30.5 79.3 61.4 207.0
Marree Airport 17 01:40 5 45 3.06 -5.9 9 9 1022.1 0 8.1 19.9 22.4 57.7 36.7 120.7
Minlaton Airport 17 01:40 7.3 96 7.59 6.7 19 20 1020.8 0.2 17.7 26.4 39.2 102.7 93.4 319.9
Minnipa Rs 17 01:40 10.9 48 4.78 0.3 19 20 1020.5 0 11.6 21.0 26.8 69.4 53.7 181.3
Moomba Airport 17 01:40 6.4 61 4.55 -0.6 7 7 1021.7 0 11.2 21.8 27.4 71.2 54.0 181.8
Mount Crawford 17 01:40 7.7 100 8.11 7.7 15 20 1021.3 0 18.8 27.2 41.3 108.2 100.2 343.9
Mount Gambier 17 01:40 2.4 94 5.37 1.5 6 6 1023 0 13.1 24.2 32.2 83.9 67.9 230.0
Mount Lofty 17 01:40 8.5 84 7.17 5.9 6 11 1013.1 0 16.8 25.1 36.6 95.7 85.6 293.0
Naracoorte 17 01:40 6.3 88 6.52 4.5 17 19 1022.6 0 15.5 25.0 35.3 92.2 79.9 272.4
Noarlunga 17 01:40 9.9 88 8.22 8 9 11 1013.1 0 19.0 26.4 40.2 105.5 98.2 337.4
Nullarbor 17 01:40 11.8 39 4.11 -1.7 22 24 1018.3 0.2 10.1 19.8 24.1 62.2 45.3 151.8
Nuriootpa 17 01:30 3.6 100 6.2 3.6 4 6 1022.7 0 14.9 25.2 35.2 91.8 78.2 266.3
Oodnadatta 17 01:40 6.9 50 3.85 -2.8 6 6 1021.3 0 9.7 20.6 24.7 63.8 45.2 150.6
Padthaway 17 01:40 7.2 82 6.44 4.3 9 11 1013.1 0 15.2 24.2 34.2 89.4 77.2 263.4
Pallamana 17 01:40 2.8 98 5.75 2.5 0 0 1022.6 0 13.9 24.7 33.6 87.7 72.8 247.0
Parafield 16 23:30 5.3 100 6.94 5.3 6 7 1022.7 0 16.4 26.0 37.5 98.1 86.8 296.4
Parawa West 17 01:40 7.1 97 7.57 6.6 2 2 1013.1 0 17.7 26.1 38.9 101.9 92.7 317.7
Parndana 17 01:40 6.3 95 7.04 5.5 4 4 1013.1 0.2 16.6 25.5 37.0 97.0 86.3 295.1
Point Avoid 17 01:40 9.1 97 8.61 8.6 13 17 1013.1 0 19.8 27.3 42.3 111.0 104.7 360.0
Port Augusta 17 01:40 6 79 5.74 2.6 7 7 1021.3 0 13.8 23.7 32.2 83.9 69.6 236.4
Port Pirie Airport Aws 17 01:40 3.9 91 5.75 2.6 11 13 1021.4 0 13.9 24.3 33.1 86.3 71.7 243.3
PT LINCOLN AWS 17 01:40 5.7 97 6.91 5.3 0 0 1020.5 0.2 16.3 25.7 37.1 97.1 85.7 292.9
Renmark Airport 17 01:40 0.9 87 4.49 -1 0 0 1022.6 0 11.3 23.1 29.2 75.8 57.2 192.2
Robe Airport 17 01:30 4 100 6.36 4 7 9 1022.1 0 15.2 25.3 35.6 93.1 80.0 272.6
Roseworthy 17 01:40 7.3 94 7.43 6.4 20 22 1021.1 0 17.4 26.2 38.6 100.9 91.2 312.1
Roxby Downs 17 01:40 4 70 4.45 -1 0 0 1021.4 0 11.1 22.2 27.9 72.3 54.4 182.8
Snowtown 17 01:40 3.3 92 5.59 2.1 7 9 1021.6 0 13.6 24.2 32.7 85.3 70.1 237.6
Stenhouse Bay 17 01:40 9.9 91 8.5 8.5 9 11 1013.1 0 19.6 26.9 41.4 108.6 102.1 350.9
Strathalbyn 17 01:40 5.7 96 6.84 5.1 13 15 1022.2 0 16.2 25.7 36.9 96.4 84.9 289.9
Tarcoola 17 01:40 7.2 47 3.69 -3.3 11 13 1021.2 0 9.4 20.3 24.0 62.1 43.1 143.3
Whyalla 17 01:40 4.2 96 6.19 3.6 9 9 1021.1 0 14.8 25.0 34.8 90.8 77.4 263.4
Woomera 17 01:40 7 58 4.5 -0.7 11 11 1021.4 0 11.1 21.6 27.0 70.2 53.0 178.3
Wudinna Airport 17 01:40 11.6 52 5.41 2.1 19 22 1020.1 0 12.9 21.8 28.8 74.9 60.7 206.1
Yunta 17 01:40 1.2 62 3.27 -5.3 0 0 1013.1 0 8.6 20.7 24.0 62.0 40.8 134.7

Last Refresh: 17-Jul-2020 01:56:34

The information presented on this site is sourced from the Bureau of Meteorology.  Copyright in all material sourced from the Bureau of Meteorology resides with the Commonwealth of Australia.